createdAt,value
2019-02-27T00:01:37.600Z,34.33
2019-02-27T00:04:05.940Z,34.00
2019-02-27T00:06:34.232Z,35.40
2019-02-27T00:09:02.594Z,33.07
2019-02-27T00:11:30.896Z,36.50
2019-02-27T00:13:59.192Z,35.43
2019-02-27T00:16:27.570Z,36.55
2019-02-27T00:18:58.599Z,33.55
2019-02-27T00:21:26.478Z,35.27
2019-02-27T00:23:56.882Z,36.30
2019-02-27T00:26:24.810Z,38.10
2019-02-27T00:28:55.961Z,35.00
2019-02-27T00:31:23.255Z,33.00
2019-02-27T00:33:51.680Z,34.63
2019-02-27T00:36:20.042Z,37.73
2019-02-27T00:38:48.345Z,32.90
2019-02-27T00:41:16.637Z,36.60
2019-02-27T00:43:45.019Z,33.50
2019-02-27T00:48:54.545Z,30.00
2019-02-27T00:51:22.840Z,37.42
2019-02-27T00:53:51.142Z,34.90
2019-02-27T00:56:19.450Z,34.27
2019-02-27T00:58:47.842Z,35.83
2019-02-27T01:03:31.229Z,34.63
2019-02-27T01:05:59.569Z,36.15
2019-02-27T01:08:28.199Z,37.00
2019-02-27T01:10:59.465Z,32.35
2019-02-27T01:13:28.937Z,35.10
2019-02-27T01:15:57.916Z,33.63
2019-02-27T01:18:30.491Z,32.77
2019-02-27T01:20:56.231Z,31.60
2019-02-27T01:23:24.552Z,29.50
2019-02-27T01:25:56.097Z,35.47
2019-02-27T01:28:23.013Z,33.30
2019-02-27T01:30:51.311Z,31.00
2019-02-27T01:33:19.601Z,34.85
2019-02-27T01:35:51.355Z,29.73
2019-02-27T01:38:17.923Z,28.50
2019-02-27T01:40:46.224Z,27.00
2019-02-27T01:43:14.565Z,32.63
2019-02-27T01:45:42.863Z,30.85
2019-02-27T01:48:11.195Z,31.70
2019-02-27T01:50:39.488Z,30.77
2019-02-27T01:53:08.116Z,29.43
2019-02-27T01:55:36.790Z,34.27
2019-02-27T01:58:09.274Z,41.77
2019-02-27T02:00:35.647Z,33.20
2019-02-27T02:03:04.252Z,32.05
2019-02-27T02:05:32.559Z,32.80
2019-02-27T02:08:00.961Z,32.57
2019-02-27T02:10:29.341Z,34.13
2019-02-27T02:13:03.846Z,31.83
2019-02-27T02:15:38.097Z,28.90
2019-02-27T02:18:26.404Z,35.70
2019-02-27T02:21:00.762Z,32.60
2019-02-27T02:23:48.464Z,32.53
2019-02-27T02:26:41.598Z,33.35
2019-02-27T02:29:28.292Z,27.53
2019-02-27T02:32:08.689Z,34.13
2019-02-27T02:34:49.084Z,31.23
2019-02-27T02:37:23.381Z,33.17
2019-02-27T02:40:00.862Z,32.90
2019-02-27T02:42:52.208Z,32.20
2019-02-27T02:45:38.828Z,32.23
2019-02-27T02:48:16.010Z,34.73
2019-02-27T02:51:05.912Z,30.40
2019-02-27T02:54:01.863Z,32.50
2019-02-27T02:56:34.302Z,32.93
2019-02-27T02:59:24.967Z,29.65
2019-02-27T03:01:55.877Z,35.53
2019-02-27T03:04:54.860Z,29.90
2019-02-27T03:07:50.471Z,35.57
2019-02-27T03:10:42.477Z,28.97
2019-02-27T03:13:34.647Z,30.17
2019-02-27T03:16:08.862Z,30.10
2019-02-27T03:19:07.595Z,36.40
2019-02-27T03:21:47.978Z,31.00
2019-02-27T03:24:28.109Z,38.20
2019-02-27T03:27:19.336Z,30.87
2019-02-27T03:30:09.074Z,30.43
2019-02-27T03:32:46.603Z,32.70
2019-02-27T03:35:51.268Z,30.03
2019-02-27T03:38:59.216Z,26.12
2019-02-27T03:41:36.633Z,31.50
2019-02-27T03:44:24.216Z,29.83
2019-02-27T03:47:04.808Z,30.93
2019-02-27T03:49:40.690Z,33.33
2019-02-27T03:52:21.361Z,30.60
2019-02-27T03:55:07.378Z,31.30
2019-02-27T03:57:56.881Z,29.33
2019-02-27T04:00:49.832Z,32.40
2019-02-27T04:03:33.166Z,29.93
2019-02-27T04:06:19.934Z,30.00
2019-02-27T04:08:56.604Z,32.13
2019-02-27T04:11:24.923Z,32.17
2019-02-27T04:13:53.386Z,38.50
2019-02-27T04:16:21.701Z,29.87
2019-02-27T04:18:50.077Z,29.30
2019-02-27T04:21:25.067Z,29.47
2019-02-27T04:23:49.332Z,33.33
2019-02-27T04:26:19.378Z,33.63
2019-02-27T04:28:47.762Z,33.80
2019-02-27T04:31:16.641Z,32.07
2019-02-27T04:33:45.004Z,35.50
2019-02-27T04:36:13.479Z,32.42
2019-02-27T04:38:42.160Z,29.10
2019-02-27T04:41:10.461Z,30.00
2019-02-27T04:43:38.849Z,31.20
2019-02-27T04:46:07.136Z,35.37
2019-02-27T04:48:35.434Z,28.57
2019-02-27T04:51:04.668Z,34.88
2019-02-27T04:53:34.584Z,35.17
2019-02-27T04:56:02.926Z,31.60
2019-02-27T04:58:31.441Z,32.37
2019-02-27T05:00:59.877Z,32.17
2019-02-27T05:03:28.612Z,30.37
2019-02-27T05:05:57.072Z,28.53
2019-02-27T05:08:27.142Z,38.85
2019-02-27T05:10:55.523Z,29.20
2019-02-27T05:14:21.632Z,29.23
2019-02-27T05:16:49.936Z,30.90
2019-02-27T05:19:18.408Z,37.00
2019-02-27T05:21:46.702Z,29.97
2019-02-27T05:24:15.097Z,29.53
2019-02-27T05:26:43.430Z,30.23
2019-02-27T05:29:11.802Z,34.45
2019-02-27T05:31:40.186Z,30.03
2019-02-27T05:34:12.734Z,30.60
2019-02-27T05:36:38.634Z,32.40
2019-02-27T05:39:07.085Z,36.00
2019-02-27T05:41:35.372Z,32.37
2019-02-27T05:44:04.430Z,37.53
2019-02-27T05:46:32.721Z,34.77
2019-02-27T05:49:01.019Z,32.73
2019-02-27T05:51:29.323Z,28.27
2019-02-27T05:53:58.448Z,32.27
2019-02-27T05:56:27.509Z,33.20
2019-02-27T05:58:56.324Z,30.90
2019-02-27T06:01:25.301Z,31.70
2019-02-27T06:03:53.595Z,33.85
2019-02-27T06:06:21.956Z,34.03
2019-02-27T06:08:50.533Z,37.00
2019-02-27T06:11:18.830Z,32.93
2019-02-27T06:13:47.457Z,39.03
2019-02-27T06:16:16.801Z,36.05
2019-02-27T06:18:45.132Z,37.10
2019-02-27T06:21:16.362Z,39.90
2019-02-27T06:29:57.844Z,42.55
2019-02-27T06:32:27.510Z,48.80
2019-02-27T06:34:59.049Z,35.90
2019-02-27T06:37:25.972Z,33.33
2019-02-27T06:39:54.349Z,39.20
2019-02-27T06:42:22.789Z,49.67
2019-02-27T06:44:51.101Z,38.53
2019-02-27T06:47:19.477Z,38.00
2019-02-27T06:49:49.037Z,35.90
2019-02-27T06:52:17.824Z,31.17
2019-02-27T06:54:46.133Z,37.40
2019-02-27T06:57:14.492Z,40.30
2019-02-27T06:59:42.777Z,36.10
2019-02-27T07:02:11.072Z,34.75
2019-02-27T07:04:40.196Z,41.05
2019-02-27T07:07:08.960Z,45.90
2019-02-27T07:09:37.298Z,38.00
2019-02-27T07:12:07.138Z,43.97
2019-02-27T07:14:36.532Z,39.30
2019-02-27T07:17:05.808Z,39.20
2019-02-27T07:19:34.131Z,36.33
2019-02-27T07:22:02.536Z,36.60
2019-02-27T07:24:33.619Z,45.77
2019-02-27T07:27:00.886Z,35.40
2019-02-27T07:29:29.175Z,31.10
2019-02-27T07:31:57.550Z,38.33
2019-02-27T07:34:26.010Z,39.00
2019-02-27T07:36:54.332Z,40.90
2019-02-27T07:39:22.621Z,37.73
2019-02-27T07:41:50.942Z,43.13
2019-02-27T07:44:19.357Z,41.00
2019-02-27T07:46:47.645Z,41.77
2019-02-27T07:49:15.979Z,38.07
2019-02-27T07:51:44.348Z,34.57
2019-02-27T07:59:38.803Z,37.57
2019-02-27T08:02:07.380Z,39.73
2019-02-27T08:04:35.700Z,42.60
2019-02-27T08:07:04.335Z,44.63
2019-02-27T08:09:32.695Z,37.57
2019-02-27T08:12:01.010Z,35.70
2019-02-27T08:14:29.546Z,32.97
2019-02-27T08:16:58.175Z,36.00
2019-02-27T08:19:26.665Z,39.27
2019-02-27T08:21:54.979Z,39.30
2019-02-27T08:24:24.837Z,39.80
2019-02-27T08:26:53.417Z,40.87
2019-02-27T08:29:21.840Z,38.33
2019-02-27T08:31:51.831Z,38.45
2019-02-27T08:34:20.142Z,41.83
2019-02-27T08:36:48.464Z,38.70
2019-02-27T08:39:17.054Z,38.93
2019-02-27T08:41:45.448Z,35.53
2019-02-27T08:44:13.779Z,40.20
2019-02-27T08:46:42.140Z,36.17
2019-02-27T08:49:10.482Z,38.33
2019-02-27T08:51:39.760Z,37.23
2019-02-27T08:54:08.823Z,41.17
2019-02-27T08:56:38.850Z,37.10
2019-02-27T08:59:07.252Z,33.57
2019-02-27T09:01:37.692Z,38.67
2019-02-27T09:04:06.214Z,34.45
2019-02-27T09:06:34.754Z,39.13
2019-02-27T09:09:03.044Z,31.73
2019-02-27T09:11:31.364Z,33.40
2019-02-27T09:13:59.673Z,35.25
2019-02-27T09:16:28.118Z,37.10
2019-02-27T09:18:56.453Z,35.47
2019-02-27T09:21:27.615Z,33.40
2019-02-27T09:23:54.791Z,34.27
2019-02-27T09:26:24.298Z,39.10
2019-02-27T09:28:52.968Z,33.00
2019-02-27T09:31:21.281Z,31.55
2019-02-27T09:33:52.963Z,35.83
2019-02-27T09:36:19.617Z,33.17
2019-02-27T09:38:47.913Z,34.20
2019-02-27T09:41:16.229Z,33.20
2019-02-27T09:43:44.537Z,33.20
2019-02-27T09:46:12.824Z,28.10
2019-02-27T09:48:41.149Z,30.37
2019-02-27T09:51:09.788Z,27.85
2019-02-27T09:53:38.398Z,29.73
2019-02-27T09:56:06.786Z,30.13
2019-02-27T09:58:35.086Z,27.43
2019-02-27T10:01:13.565Z,30.40
2019-02-27T10:03:41.934Z,24.93
2019-02-27T10:06:10.310Z,26.07
2019-02-27T10:08:38.690Z,23.63
2019-02-27T10:11:06.991Z,22.97
2019-02-27T10:13:35.529Z,24.93
2019-02-27T10:16:05.455Z,24.00
2019-02-27T10:18:33.774Z,21.27
2019-02-27T10:21:02.146Z,21.90
2019-02-27T10:23:31.275Z,17.33
2019-02-27T10:25:59.868Z,15.73
2019-02-27T10:28:28.212Z,16.13
2019-02-27T10:30:56.505Z,18.97
2019-02-27T10:33:25.886Z,17.03
2019-02-27T10:35:54.513Z,16.80
2019-02-27T10:38:22.890Z,19.27
2019-02-27T10:40:51.256Z,17.80
2019-02-27T10:43:21.092Z,19.30
2019-02-27T10:45:49.729Z,18.10
2019-02-27T10:48:18.077Z,18.73
2019-02-27T10:50:46.535Z,20.53
2019-02-27T10:53:14.852Z,20.50
2019-02-27T10:55:43.170Z,22.10
2019-02-27T10:58:13.238Z,20.30
2019-02-27T11:00:43.189Z,18.43
2019-02-27T11:03:11.511Z,17.80
2019-02-27T11:05:40.081Z,18.00
2019-02-27T11:08:08.373Z,20.90
2019-02-27T11:10:36.761Z,21.55
2019-02-27T11:13:06.815Z,17.70
2019-02-27T11:15:35.760Z,19.83
2019-02-27T11:18:05.668Z,19.63
2019-02-27T11:20:34.338Z,17.17
2019-02-27T11:23:22.181Z,20.27
2019-02-27T11:25:50.590Z,20.90
2019-02-27T11:28:18.881Z,17.33
2019-02-27T11:30:47.212Z,20.83
2019-02-27T11:33:25.262Z,19.63
2019-02-27T11:35:45.977Z,23.43
2019-02-27T11:38:14.512Z,19.23
2019-02-27T11:40:42.961Z,19.90
2019-02-27T11:43:11.659Z,18.35
2019-02-27T11:45:40.063Z,19.90
2019-02-27T11:48:08.354Z,18.43
2019-02-27T11:50:36.662Z,21.43
2019-02-27T11:53:05.865Z,21.70
2019-02-27T11:55:53.605Z,21.77
2019-02-27T11:58:21.932Z,22.53
2019-02-27T12:00:50.311Z,19.23
2019-02-27T12:03:18.972Z,24.17
2019-02-27T12:05:47.371Z,18.93
2019-02-27T12:08:15.690Z,21.00
2019-02-27T12:11:03.433Z,20.43
2019-02-27T12:13:32.344Z,20.47
2019-02-27T12:16:02.142Z,17.33
2019-02-27T12:18:32.185Z,21.47
2019-02-27T12:21:00.590Z,19.30
2019-02-27T12:23:28.924Z,20.05
2019-02-27T12:25:57.215Z,18.93
2019-02-27T12:28:26.176Z,22.87
2019-02-27T12:30:54.562Z,19.00
2019-02-27T12:33:22.882Z,23.12
2019-02-27T12:35:51.184Z,20.75
2019-02-27T12:38:19.500Z,20.90
2019-02-27T12:40:47.958Z,22.50
2019-02-27T12:43:18.303Z,21.60
2019-02-27T12:45:46.326Z,20.00
2019-02-27T12:48:14.828Z,20.87
2019-02-27T12:50:44.819Z,21.33
2019-02-27T12:53:14.756Z,21.75
2019-02-27T12:55:43.050Z,24.85
2019-02-27T12:58:13.366Z,22.20
2019-02-27T13:00:42.509Z,25.55
2019-02-27T13:03:11.550Z,19.63
2019-02-27T13:05:39.901Z,22.48
2019-02-27T13:08:08.244Z,22.30
2019-02-27T13:10:36.986Z,21.43
2019-02-27T13:13:05.515Z,19.80
2019-02-27T13:15:33.945Z,21.40
2019-02-27T13:18:02.346Z,20.00
2019-02-27T13:20:34.410Z,21.05
2019-02-27T13:23:05.174Z,27.57
2019-02-27T13:25:32.761Z,22.13
2019-02-27T13:28:01.213Z,21.70
2019-02-27T13:30:29.632Z,20.20
2019-02-27T13:33:00.734Z,24.45
2019-02-27T13:35:29.045Z,23.80
2019-02-27T13:37:57.810Z,21.50
2019-02-27T13:40:34.953Z,22.83
2019-02-27T13:43:01.515Z,26.10
2019-02-27T13:45:33.749Z,20.90
2019-02-27T13:48:21.547Z,20.45
2019-02-27T13:50:49.941Z,22.33
2019-02-27T13:53:18.306Z,18.80
2019-02-27T13:55:48.140Z,21.55
2019-02-27T13:58:16.709Z,21.53
2019-02-27T14:00:45.000Z,22.10
2019-02-27T14:03:13.445Z,24.95
2019-02-27T14:05:41.776Z,20.77
2019-02-27T14:08:10.069Z,19.00
2019-02-27T14:10:38.455Z,22.77
2019-02-27T14:13:09.772Z,22.50
2019-02-27T14:15:36.859Z,23.92
2019-02-27T14:18:05.405Z,26.03
2019-02-27T14:20:33.781Z,23.43
2019-02-27T14:23:02.187Z,16.87
2019-02-27T14:25:33.295Z,24.00
2019-02-27T14:28:02.376Z,22.95
2019-02-27T14:30:43.266Z,23.47
2019-02-27T14:33:11.578Z,24.50
2019-02-27T14:35:39.896Z,21.77
2019-02-27T14:38:08.212Z,24.75
2019-02-27T14:40:39.504Z,22.87
2019-02-27T14:43:06.716Z,22.77
2019-02-27T14:45:39.558Z,23.55
2019-02-27T14:48:05.274Z,20.23
2019-02-27T14:50:34.527Z,21.50
2019-02-27T14:53:03.249Z,22.25
2019-02-27T14:55:31.540Z,25.15
2019-02-27T14:57:59.863Z,23.10
2019-02-27T15:00:30.769Z,21.70
2019-02-27T15:02:59.083Z,26.95
2019-02-27T15:05:27.393Z,22.30
2019-02-27T15:07:55.709Z,22.20
2019-02-27T15:10:24.445Z,24.65
2019-02-27T15:12:55.598Z,27.22
2019-02-27T15:15:29.357Z,25.00
2019-02-27T15:17:57.696Z,24.40
2019-02-27T15:20:30.100Z,23.75
2019-02-27T15:22:58.485Z,28.85
2019-02-27T15:25:27.736Z,27.17
2019-02-27T15:27:58.765Z,29.98
2019-02-27T15:30:30.666Z,28.23
2019-02-27T15:33:03.558Z,29.50
2019-02-27T15:35:29.180Z,30.75
2019-02-27T15:38:16.952Z,30.97
2019-02-27T15:40:45.375Z,32.17
2019-02-27T15:43:16.757Z,31.17
2019-02-27T15:45:49.091Z,25.30
2019-02-27T15:48:16.502Z,32.60
2019-02-27T15:50:44.798Z,27.55
2019-02-27T15:53:15.028Z,25.97
2019-02-27T15:55:43.341Z,31.30
2019-02-27T15:58:14.476Z,24.70
2019-02-27T16:00:44.616Z,27.50
2019-02-27T16:03:13.439Z,28.07
2019-02-27T16:05:41.819Z,23.20
2019-02-27T16:08:10.217Z,25.45
2019-02-27T16:10:42.686Z,24.05
2019-02-27T16:13:08.617Z,23.15
2019-02-27T16:15:38.631Z,24.20
2019-02-27T16:18:07.009Z,25.05
2019-02-27T16:20:35.845Z,25.30
2019-02-27T16:23:07.323Z,25.32
2019-02-27T16:25:37.305Z,22.75
2019-02-27T16:28:05.668Z,24.50
2019-02-27T16:30:42.937Z,25.00
2019-02-27T16:33:13.119Z,21.20
2019-02-27T16:42:00.931Z,24.25
2019-02-27T16:44:34.849Z,22.33
2019-02-27T16:47:03.696Z,26.33
2019-02-27T16:49:32.326Z,29.10
2019-02-27T16:52:00.751Z,37.13
2019-02-27T16:54:29.058Z,38.23
2019-02-27T16:56:58.182Z,33.53
2019-02-27T16:59:26.684Z,30.70
2019-02-27T17:01:55.056Z,34.53
2019-02-27T17:04:23.360Z,34.53
2019-02-27T17:06:52.398Z,33.92
2019-02-27T17:09:21.038Z,35.48
2019-02-27T17:11:49.332Z,35.45
2019-02-27T17:14:17.805Z,37.83
2019-02-27T17:16:46.109Z,33.10
2019-02-27T17:19:14.415Z,39.80
2019-02-27T17:21:42.725Z,40.23
2019-02-27T17:24:11.023Z,37.97
2019-02-27T17:26:39.850Z,34.50
2019-02-27T17:29:08.512Z,40.83
2019-02-27T17:31:36.895Z,40.03
2019-02-27T17:34:05.616Z,35.00
2019-02-27T17:36:34.051Z,37.43
2019-02-27T17:39:02.455Z,40.43
2019-02-27T17:43:42.434Z,39.45
2019-02-27T17:46:10.827Z,38.40
2019-02-27T17:48:39.147Z,44.03
2019-02-27T17:51:07.499Z,41.87
2019-02-27T17:53:35.790Z,41.60
2019-02-27T17:56:04.647Z,39.20
2019-02-27T17:58:34.966Z,40.33
2019-02-27T18:01:04.770Z,38.90
2019-02-27T18:03:33.161Z,46.30
2019-02-27T18:06:01.779Z,40.55
2019-02-27T18:08:30.197Z,43.40
2019-02-27T18:10:58.504Z,36.67
2019-02-27T18:13:26.830Z,40.27
2019-02-27T18:15:59.809Z,45.30
2019-02-27T18:18:28.165Z,44.00
2019-02-27T18:20:56.732Z,39.30
2019-02-27T18:23:26.532Z,40.50
2019-02-27T18:25:54.829Z,41.70
2019-02-27T18:28:23.225Z,38.00
2019-02-27T18:30:53.154Z,37.37
2019-02-27T18:33:21.852Z,40.10
2019-02-27T18:35:50.406Z,44.33
2019-02-27T18:38:18.773Z,41.65
2019-02-27T18:40:47.082Z,39.00
2019-02-27T18:43:15.405Z,41.60
2019-02-27T18:45:43.710Z,39.67
2019-02-27T18:48:12.113Z,41.15
2019-02-27T18:50:40.564Z,48.17
2019-02-27T18:53:13.090Z,43.10
2019-02-27T18:55:38.902Z,43.90
2019-02-27T18:58:07.408Z,38.20
2019-02-27T19:00:36.212Z,39.90
2019-02-27T19:03:08.243Z,43.20
2019-02-27T19:05:38.179Z,40.15
2019-02-27T19:08:06.717Z,45.47
2019-02-27T19:10:35.071Z,39.73
2019-02-27T19:13:03.448Z,46.37
2019-02-27T19:15:32.009Z,44.50
2019-02-27T19:18:00.405Z,45.90
2019-02-27T19:20:46.746Z,48.77
2019-02-27T19:23:17.657Z,41.58
2019-02-27T19:25:45.699Z,41.10
2019-02-27T19:28:16.989Z,44.17
2019-02-27T19:30:45.325Z,45.10
2019-02-27T19:33:13.794Z,40.70
2019-02-27T19:35:42.093Z,48.67
2019-02-27T19:38:12.972Z,41.60
2019-02-27T19:40:40.518Z,44.05
2019-02-27T19:43:08.866Z,43.80
2019-02-27T19:45:37.235Z,45.17
2019-02-27T19:48:05.648Z,48.58
2019-02-27T19:50:34.600Z,44.25
2019-02-27T19:53:06.626Z,44.30
2019-02-27T19:55:33.027Z,42.55
2019-02-27T19:58:01.387Z,39.33
2019-02-27T20:00:34.935Z,42.10
2019-02-27T20:03:01.666Z,48.30
2019-02-27T20:05:30.187Z,44.85
2019-02-27T20:08:29.138Z,42.25
2019-02-27T20:10:58.494Z,46.80
2019-02-27T20:13:28.053Z,52.43
2019-02-27T20:15:59.067Z,43.23
2019-02-27T20:18:27.489Z,47.90
2019-02-27T20:24:26.911Z,44.20
2019-02-27T20:26:58.226Z,43.65
2019-02-27T20:29:26.765Z,42.13
2019-02-27T20:31:55.358Z,43.87
2019-02-27T20:34:23.972Z,44.03
2019-02-27T20:36:52.296Z,47.50
2019-02-27T20:39:26.818Z,49.10
2019-02-27T20:41:55.108Z,45.67
2019-02-27T20:44:29.225Z,46.50
2019-02-27T20:46:57.648Z,47.33
2019-02-27T20:49:26.025Z,43.63
2019-02-27T20:51:57.818Z,46.03
2019-02-27T20:54:26.116Z,46.60
2019-02-27T20:56:59.378Z,40.30
2019-02-27T20:59:33.361Z,43.10
2019-02-27T21:02:05.002Z,47.60
2019-02-27T21:05:14.688Z,46.53
2019-02-27T21:07:43.069Z,46.45
2019-02-27T21:10:21.042Z,43.55
2019-02-27T21:12:53.921Z,41.83
2019-02-27T21:15:19.637Z,41.20
2019-02-27T21:17:49.722Z,47.50
2019-02-27T21:20:18.098Z,44.30
2019-02-27T21:22:50.906Z,45.45
2019-02-27T21:25:20.856Z,45.00
2019-02-27T21:27:49.234Z,45.30
2019-02-27T21:30:23.085Z,43.15
2019-02-27T21:32:57.400Z,51.93
2019-02-27T21:35:28.857Z,43.63
2019-02-27T21:37:56.100Z,44.30
2019-02-27T21:40:26.104Z,47.57
2019-02-27T21:42:56.071Z,53.57
2019-02-27T21:45:24.515Z,51.00
2019-02-27T21:47:53.050Z,42.70
2019-02-27T21:50:23.642Z,46.03
2019-02-27T21:52:54.269Z,44.77
2019-02-27T21:55:22.235Z,53.10
2019-02-27T21:57:50.626Z,50.05
2019-02-27T22:00:24.910Z,53.50
2019-02-27T22:02:55.047Z,48.70
2019-02-27T22:05:23.541Z,54.33
2019-02-27T22:07:51.909Z,44.90
2019-02-27T22:10:20.651Z,50.40
2019-02-27T22:12:51.315Z,54.80
2019-02-27T22:15:27.326Z,50.20
2019-02-27T22:17:55.646Z,47.90
2019-02-27T22:20:25.814Z,50.03
2019-02-27T22:22:54.086Z,51.73
2019-02-27T22:25:22.471Z,54.48
2019-02-27T22:27:50.830Z,52.27
2019-02-27T22:30:20.357Z,50.73
2019-02-27T22:32:48.854Z,55.50
2019-02-27T22:35:17.334Z,49.67
2019-02-27T22:37:45.637Z,46.90
2019-02-27T22:40:21.496Z,55.60
2019-02-27T22:42:51.422Z,53.87
2019-02-27T22:45:20.477Z,52.30
2019-02-27T22:47:50.547Z,59.00
2019-02-27T22:50:19.790Z,69.00
2019-02-27T22:52:48.250Z,63.57
2019-02-27T22:55:17.837Z,56.43
2019-02-27T22:57:46.181Z,66.40
2019-02-27T23:00:56.617Z,67.10
2019-02-27T23:03:35.673Z,59.25
2019-02-27T23:06:04.771Z,63.75
2019-02-27T23:08:33.089Z,71.20
2019-02-27T23:11:02.927Z,68.23
2019-02-27T23:13:31.405Z,74.40
2019-02-27T23:15:59.717Z,64.90
2019-02-27T23:18:28.083Z,63.23
2019-02-27T23:20:56.402Z,69.77
2019-02-27T23:23:25.034Z,59.27
2019-02-27T23:25:53.395Z,64.20
2019-02-27T23:28:21.711Z,62.50
2019-02-27T23:30:50.084Z,59.53
2019-02-27T23:33:18.453Z,59.97
2019-02-27T23:35:47.410Z,64.40
2019-02-27T23:38:18.324Z,61.73
2019-02-27T23:40:48.996Z,57.30
2019-02-27T23:43:19.663Z,59.48
2019-02-27T23:45:46.716Z,61.57
2019-02-27T23:48:15.065Z,61.53
2019-02-27T23:50:43.525Z,62.50
2019-02-27T23:53:11.825Z,60.37
2019-02-27T23:55:44.340Z,66.75
2019-02-27T23:58:10.285Z,66.73
